• Join FlightAware (Why Join?)
  • Login
  • US Flag 
11:10AM EDT


 

Airport Tracker/Info


-or-


 

Live Flight TrackerFlight Track Log ✈ N93XP ✈ 16-Aug-2013 ✈ KGTU - KJSO

Flight Track Log - Related Links

Times and Time Zones

All times are in EDT time to prevent confusion due to time zone crossing. See the N93XP flight status page for this flight to view local times or setup timezone preferences in your user account.

Time Position Orientation Groundspeed Altitude Reporting Facility
EDT Latitude Longitude Course Direction KTS MPH feet Rate Location/Type
04:21PM 30.8053 -97.4300 60° Northeast 285 328 10,800  Level Houston Center
04:22PM 30.8475 -97.3414 61° Northeast 308 354 12,600 1,500 Climbing Houston Center
04:23PM 30.8906 -97.2528 60° Northeast 317 365 14,000 1,020 Climbing Houston Center
04:24PM 30.9317 -97.1650 61° Northeast 319 367 14,800 660 Climbing Houston Center
04:25PM 30.9814 -97.0711 58° Northeast 297 342 15,400 240 Climbing Houston Center
04:26PM 31.0197 -96.9928 60° Northeast 282 325 15,300  Descending Houston Center
04:27PM 31.0669 -96.9592 31° Northeast 259 298 15,500  Climbing Houston Center
04:28PM 31.0856 -96.9928 303° West 258 297 15,400  Descending Houston Center
04:30PM 31.1203 -96.8989 67° East 157 181 15,500  Climbing Fort Worth Center
04:31PM 31.1453 -96.8381 64° Northeast 190 219 15,500 -120 Level Fort Worth Center
04:31PM 31.1575 -96.8136 60° Northeast 191 220 15,400 -120 Descending Houston Center
04:32PM 31.2003 -96.7889 26° Northeast 197 227 15,400  Level Houston Center
04:33PM 31.2206 -96.7353 66° East 185 213 15,400  Level Houston Center
04:34PM 31.2428 -96.6842 63° Northeast 193 222 15,500 60 Climbing Houston Center
04:35PM 31.2825 -96.6022 60° Northeast 287 330 15,600 -60 Climbing Houston Center
04:36PM 31.3333 -96.5042 59° Northeast 343 395 15,400 -60 Descending Houston Center
04:37PM 31.3869 -96.4022 58° Northeast 363 418 15,500  Climbing Houston Center
04:38PM 31.4386 -96.2700 65° Northeast 382 440 15,400 -60 Descending Houston Center
04:40PM 31.4961 -96.1631 58° Northeast 384 442 15,400  Level Houston Center
04:41PM 31.5583 -96.0614 54° Northeast 375 432 15,400  Level Houston Center
04:42PM 31.6200 -95.9633 54° Northeast 374 430 15,400 -240 Level Houston Center
04:43PM 31.6747 -95.8575 59° Northeast 377 434 15,000 -1,200 Descending Houston Center
04:44PM 31.7142 -95.7464 67° East 372 428 13,000 -1,980 Descending Houston Center
04:45PM 31.7492 -95.6392 69° East 355 409 11,000 -2,040 Descending Houston Center
04:46PM 31.7564 -95.5175 86° East 331 381 8,800 -1,800 Descending Fort Worth Center
04:47PM 31.7531 -95.4197 92° East 313 360 7,400 -1,500 Descending Fort Worth Center
04:48PM 31.7347 -95.3347 104° East 286 329 5,800 -1,440 Descending Fort Worth Center
04:49PM 31.7169 -95.2594 105° East 257 296 4,600 -900 Descending Fort Worth Center
04:50PM 31.6969 -95.1889 108° East 236 272 4,100 -780 Descending Fort Worth Center
04:51PM 31.6894 -95.1233 98° East 218 251 3,100 -480 Descending Fort Worth Center
04:52PM 31.7264 -95.0883 39° Northeast 163 188 3,200  Climbing Fort Worth Center
04:53PM 31.7553 -95.0753 21° North 125 144 3,100 -120 Descending Fort Worth Center